createdAt,value
2022-08-07T00:00:40.002Z,9.96
2022-08-07T00:03:28.551Z,9.96
2022-08-07T00:06:32.932Z,9.96
2022-08-07T00:09:20.831Z,9.96
2022-08-07T00:12:08.588Z,9.93
2022-08-07T00:14:57.117Z,9.88
2022-08-07T00:17:45.421Z,9.87
2022-08-07T00:20:46.557Z,9.84
2022-08-07T00:23:36.390Z,9.79
2022-08-07T00:26:49.593Z,9.76
2022-08-07T00:29:32.589Z,9.73
2022-08-07T00:32:19.268Z,9.72
2022-08-07T00:35:15.288Z,9.71
2022-08-07T00:38:05.248Z,9.65
2022-08-07T00:40:52.334Z,9.59
2022-08-07T00:43:59.298Z,9.61
2022-08-07T00:46:45.971Z,9.59
2022-08-07T00:50:19.310Z,9.58
2022-08-07T00:52:39.917Z,9.52
2022-08-07T00:56:02.894Z,9.54
2022-08-07T00:58:36.575Z,9.43
2022-08-07T01:01:25.057Z,9.32
2022-08-07T01:04:12.228Z,9.25
2022-08-07T01:07:12.009Z,9.17
2022-08-07T01:10:05.812Z,9.19
2022-08-07T01:12:58.523Z,9.20
2022-08-07T01:16:00.883Z,9.20
2022-08-07T01:18:52.410Z,9.04
2022-08-07T01:21:43.580Z,9.02
2022-08-07T01:24:30.805Z,9.01
2022-08-07T01:27:19.369Z,8.97
2022-08-07T01:30:09.544Z,8.89
2022-08-07T01:32:58.395Z,8.85
2022-08-07T01:35:53.065Z,8.83
2022-08-07T01:38:43.501Z,8.80
2022-08-07T01:41:55.227Z,8.77
2022-08-07T01:44:53.571Z,8.75
2022-08-07T01:48:29.296Z,8.68
2022-08-07T01:50:50.367Z,8.68
2022-08-07T01:54:09.401Z,8.66
2022-08-07T01:56:53.290Z,8.75
2022-08-07T01:59:47.346Z,8.72
2022-08-07T02:03:12.224Z,8.69
2022-08-07T02:05:59.416Z,8.59
2022-08-07T02:08:54.215Z,8.50
2022-08-07T02:12:03.846Z,8.48
2022-08-07T02:14:58.168Z,8.47
2022-08-07T02:17:59.887Z,8.41
2022-08-07T02:20:51.941Z,8.40
2022-08-07T02:23:45.314Z,8.37
2022-08-07T02:26:36.273Z,8.32
2022-08-07T02:29:26.952Z,8.28
2022-08-07T02:32:16.014Z,8.29
2022-08-07T02:35:06.161Z,8.36
2022-08-07T02:37:59.173Z,8.37
2022-08-07T02:40:51.503Z,8.30
2022-08-07T02:43:47.633Z,8.23
2022-08-07T02:46:38.592Z,8.16
2022-08-07T02:49:57.777Z,8.12
2022-08-07T02:52:48.738Z,8.12
2022-08-07T02:56:04.076Z,8.13
2022-08-07T02:58:53.954Z,8.11
2022-08-07T03:01:47.318Z,8.08
2022-08-07T03:04:42.939Z,8.04
2022-08-07T03:08:05.152Z,7.92
2022-08-07T03:10:46.452Z,8.02
2022-08-07T03:13:39.274Z,7.92
2022-08-07T03:16:39.300Z,8.00
2022-08-07T03:19:37.101Z,7.93
2022-08-07T03:22:30.721Z,7.83
2022-08-07T03:25:18.914Z,7.87
2022-08-07T03:28:37.786Z,7.93
2022-08-07T03:31:24.837Z,7.96
2022-08-07T03:34:22.368Z,7.94
2022-08-07T03:37:14.642Z,7.90
2022-08-07T03:40:16.742Z,7.84
2022-08-07T03:43:05.432Z,7.83
2022-08-07T03:46:03.596Z,7.91
2022-08-07T03:49:02.814Z,7.83
2022-08-07T03:52:01.784Z,7.89
2022-08-07T03:54:54.210Z,7.86
2022-08-07T03:58:32.572Z,7.87
2022-08-07T04:01:00.328Z,7.91
2022-08-07T04:03:55.374Z,8.05
2022-08-07T04:06:45.418Z,7.98
2022-08-07T04:09:45.264Z,8.00
2022-08-07T04:12:42.248Z,7.99
2022-08-07T04:15:29.297Z,8.00
2022-08-07T04:18:57.653Z,8.00
2022-08-07T04:21:23.882Z,8.12
2022-08-07T04:24:26.844Z,8.12
2022-08-07T04:27:25.801Z,8.14
2022-08-07T04:30:35.831Z,8.18
2022-08-07T04:33:33.644Z,8.38
2022-08-07T04:36:26.297Z,8.75
2022-08-07T04:39:14.112Z,9.11
2022-08-07T04:42:05.464Z,9.35
2022-08-07T04:45:02.977Z,9.45
2022-08-07T04:48:10.155Z,9.44
2022-08-07T04:51:09.326Z,9.41
2022-08-07T04:54:06.708Z,9.69
2022-08-07T04:58:23.958Z,9.89
2022-08-07T05:00:18.898Z,9.92
2022-08-07T05:03:38.777Z,9.92
2022-08-07T05:06:43.236Z,9.98
2022-08-07T05:09:45.539Z,10.05
2022-08-07T05:12:46.271Z,10.39
2022-08-07T05:15:43.773Z,10.89
2022-08-07T05:18:36.939Z,11.62
2022-08-07T05:22:00.666Z,12.15
2022-08-07T05:24:40.398Z,12.52
2022-08-07T05:28:03.336Z,12.79
2022-08-07T05:30:40.181Z,12.89
2022-08-07T05:33:35.550Z,12.87
2022-08-07T05:36:30.606Z,12.90
2022-08-07T05:40:14.104Z,12.91
2022-08-07T05:42:36.985Z,12.98
2022-08-07T05:45:47.756Z,13.23
2022-08-07T05:48:58.644Z,13.44
2022-08-07T05:51:49.704Z,13.64
2022-08-07T05:54:53.817Z,13.87
2022-08-07T05:57:48.769Z,14.12
2022-08-07T06:00:50.929Z,14.13
2022-08-07T06:06:56.403Z,14.46
2022-08-07T06:10:05.232Z,14.62
2022-08-07T06:12:56.044Z,14.72
2022-08-07T06:15:44.436Z,14.66
2022-08-07T06:18:40.963Z,14.68
2022-08-07T06:22:15.471Z,14.67
2022-08-07T06:24:53.072Z,14.82
2022-08-07T06:28:01.630Z,15.14
2022-08-07T06:30:50.694Z,15.52
2022-08-07T06:33:41.519Z,15.83
2022-08-07T06:36:35.359Z,16.21
2022-08-07T06:40:16.668Z,16.25
2022-08-07T06:42:37.633Z,16.41
2022-08-07T06:45:50.692Z,16.53
2022-08-07T06:48:41.758Z,16.90
2022-08-07T06:51:33.434Z,17.08
2022-08-07T06:55:31.952Z,17.25
2022-08-07T06:57:43.633Z,17.41
2022-08-07T07:00:44.022Z,17.52
2022-08-07T07:03:48.871Z,17.66
2022-08-07T07:06:39.399Z,17.68
2022-08-07T07:09:46.585Z,17.74
2022-08-07T07:12:41.849Z,17.94
2022-08-07T07:15:41.138Z,18.10
2022-08-07T07:18:47.779Z,18.07
2022-08-07T07:22:11.871Z,18.28
2022-08-07T07:25:02.627Z,18.27
2022-08-07T07:28:02.551Z,18.30
2022-08-07T07:30:57.147Z,18.40
2022-08-07T07:33:54.907Z,18.29
2022-08-07T07:36:47.821Z,18.57
2022-08-07T07:39:52.272Z,18.69
2022-08-07T07:42:42.637Z,18.82
2022-08-07T07:46:37.200Z,19.11
2022-08-07T07:48:40.964Z,19.15
2022-08-07T07:51:33.347Z,19.25
2022-08-07T07:54:50.901Z,19.31
2022-08-07T07:57:52.280Z,19.45
2022-08-07T08:00:45.715Z,19.70
2022-08-07T08:04:10.573Z,19.72
2022-08-07T08:06:53.195Z,19.75
2022-08-07T08:09:52.546Z,19.72
2022-08-07T08:12:58.894Z,19.83
2022-08-07T08:18:36.392Z,19.92
2022-08-07T08:18:57.773Z,20.09
2022-08-07T08:22:04.920Z,20.32
2022-08-07T08:25:24.674Z,20.35
2022-08-07T08:28:37.650Z,20.36
2022-08-07T08:31:30.211Z,20.44
2022-08-07T08:34:37.562Z,20.47
2022-08-07T08:38:01.388Z,20.47
2022-08-07T08:40:37.228Z,20.74
2022-08-07T08:43:42.629Z,20.90
2022-08-07T08:46:44.899Z,20.97
2022-08-07T08:49:57.162Z,21.33
2022-08-07T08:52:55.385Z,21.54
2022-08-07T08:55:55.211Z,21.67
2022-08-07T08:58:54.662Z,21.58
2022-08-07T09:01:49.499Z,21.07
2022-08-07T09:04:45.896Z,20.58
2022-08-07T09:07:46.591Z,20.71
2022-08-07T09:10:49.979Z,21.26
2022-08-07T09:13:42.196Z,21.35
2022-08-07T09:16:41.292Z,21.66
2022-08-07T09:19:53.676Z,22.03
2022-08-07T09:24:54.568Z,22.30
2022-08-07T09:26:23.799Z,22.58
2022-08-07T09:30:03.804Z,22.62
2022-08-07T09:32:45.088Z,22.64
2022-08-07T09:36:04.423Z,22.53
2022-08-07T09:39:11.501Z,22.48
2022-08-07T09:42:33.008Z,22.58
2022-08-07T09:47:23.555Z,22.22
2022-08-07T09:49:02.322Z,22.00
2022-08-07T09:52:15.459Z,22.00
2022-08-07T09:55:42.914Z,22.29
2022-08-07T09:58:52.475Z,22.52
2022-08-07T10:02:00.067Z,22.65
2022-08-07T10:05:29.374Z,23.24
2022-08-07T10:08:45.605Z,23.66
2022-08-07T10:12:02.101Z,24.05
2022-08-07T10:15:15.174Z,23.98
2022-08-07T10:18:35.725Z,24.01
2022-08-07T10:22:14.982Z,23.90
2022-08-07T10:24:52.260Z,24.01
2022-08-07T10:28:12.631Z,24.11
2022-08-07T10:31:17.824Z,24.27
2022-08-07T10:34:18.045Z,23.97
2022-08-07T10:37:26.559Z,23.26
2022-08-07T10:40:42.703Z,22.89
2022-08-07T10:43:35.978Z,22.31
2022-08-07T10:46:27.255Z,21.99
2022-08-07T10:49:24.688Z,21.69
2022-08-07T10:52:40.010Z,21.52
2022-08-07T10:55:37.935Z,21.31
2022-08-07T10:58:40.527Z,21.26
2022-08-07T11:01:50.985Z,21.37
2022-08-07T11:05:01.669Z,21.41
2022-08-07T11:08:04.750Z,21.42
2022-08-07T11:11:00.149Z,21.58
2022-08-07T11:14:44.468Z,21.72
2022-08-07T11:17:02.438Z,21.75
2022-08-07T11:19:59.364Z,21.67
2022-08-07T11:22:58.698Z,21.59
2022-08-07T11:25:54.138Z,21.75
2022-08-07T11:28:53.562Z,22.05
2022-08-07T11:31:48.015Z,22.62
2022-08-07T11:34:46.839Z,22.92
2022-08-07T11:38:12.771Z,22.78
2022-08-07T11:41:09.133Z,22.99
2022-08-07T11:44:18.599Z,23.03
2022-08-07T11:47:13.840Z,23.12
2022-08-07T11:50:31.431Z,23.49
2022-08-07T11:53:35.358Z,23.72
2022-08-07T11:56:36.571Z,23.64
2022-08-07T12:00:10.778Z,23.85
2022-08-07T12:03:42.313Z,24.05
2022-08-07T12:06:44.880Z,24.16
2022-08-07T12:09:46.157Z,24.28
2022-08-07T12:12:38.796Z,24.26
2022-08-07T12:15:46.497Z,24.18
2022-08-07T12:18:46.340Z,24.47
2022-08-07T12:21:55.788Z,24.52
2022-08-07T12:26:22.057Z,24.72
2022-08-07T12:28:44.986Z,24.73
2022-08-07T12:32:01.829Z,24.31
2022-08-07T12:34:49.353Z,23.99
2022-08-07T12:38:09.067Z,23.66
2022-08-07T12:40:51.120Z,23.60
2022-08-07T12:44:04.038Z,23.44
2022-08-07T12:47:06.299Z,23.35
2022-08-07T12:50:04.731Z,23.32
2022-08-07T12:53:22.044Z,23.21
2022-08-07T12:56:13.472Z,23.28
2022-08-07T12:59:02.532Z,23.33
2022-08-07T13:02:03.305Z,23.34
2022-08-07T13:06:02.115Z,23.31
2022-08-07T13:08:42.175Z,23.57
2022-08-07T13:12:02.477Z,23.84
2022-08-07T13:15:00.459Z,24.19
2022-08-07T13:17:53.834Z,24.43
2022-08-07T13:20:51.002Z,24.52
2022-08-07T13:24:00.554Z,24.69
2022-08-07T13:27:02.980Z,24.79
2022-08-07T13:30:03.715Z,24.92
2022-08-07T13:32:58.251Z,24.94
2022-08-07T13:36:00.751Z,25.08
2022-08-07T13:39:02.243Z,25.09
2022-08-07T13:41:54.876Z,24.95
2022-08-07T13:44:44.577Z,24.84
2022-08-07T13:48:05.390Z,24.89
2022-08-07T13:51:01.303Z,24.87
2022-08-07T13:54:00.405Z,24.68
2022-08-07T13:56:51.660Z,24.61
2022-08-07T13:59:45.986Z,24.43
2022-08-07T14:02:51.122Z,24.31
2022-08-07T14:05:41.499Z,24.42
2022-08-07T14:08:29.875Z,24.67
2022-08-07T14:11:21.710Z,24.76
2022-08-07T14:14:12.624Z,24.95
2022-08-07T14:17:13.020Z,24.98
2022-08-07T14:20:39.783Z,24.85
2022-08-07T14:23:31.512Z,24.91
2022-08-07T14:26:40.637Z,24.92
2022-08-07T14:30:07.378Z,24.69
2022-08-07T14:32:57.741Z,24.34
2022-08-07T14:35:47.678Z,24.40
2022-08-07T14:38:35.548Z,24.33
2022-08-07T14:41:33.945Z,24.08
2022-08-07T14:44:39.079Z,24.47
2022-08-07T14:47:27.816Z,24.32
2022-08-07T14:50:19.812Z,24.37
2022-08-07T15:00:03.370Z,24.60
2022-08-07T15:02:39.256Z,24.68
2022-08-07T15:05:30.385Z,24.90
2022-08-07T15:08:32.304Z,24.57
2022-08-07T15:11:53.340Z,24.64
2022-08-07T15:14:30.828Z,24.73
2022-08-07T15:17:21.174Z,24.76
2022-08-07T15:20:31.304Z,24.64
2022-08-07T15:25:15.571Z,24.52
2022-08-07T15:30:09.031Z,23.98
2022-08-07T15:33:01.661Z,23.82
2022-08-07T15:36:01.209Z,23.39
2022-08-07T15:39:04.246Z,23.19
2022-08-07T15:42:46.282Z,23.24
2022-08-07T15:45:19.272Z,22.93
2022-08-07T15:48:14.514Z,22.82
2022-08-07T15:54:17.568Z,22.63
2022-08-07T15:57:05.862Z,22.73
2022-08-07T15:59:54.931Z,22.37
2022-08-07T16:02:46.948Z,22.20
2022-08-07T16:05:36.181Z,21.98
2022-08-07T16:08:37.926Z,21.93
2022-08-07T16:11:40.149Z,21.69
2022-08-07T16:14:37.807Z,21.51
2022-08-07T16:18:02.003Z,21.35
2022-08-07T16:21:43.992Z,21.10
2022-08-07T16:24:02.463Z,20.93
2022-08-07T16:27:00.896Z,20.74
2022-08-07T16:30:11.639Z,20.63
2022-08-07T16:34:02.644Z,20.49
2022-08-07T16:36:31.299Z,20.35
2022-08-07T16:39:40.676Z,20.35
2022-08-07T16:42:52.545Z,20.31
2022-08-07T16:46:41.049Z,20.24
2022-08-07T16:50:27.097Z,20.29
2022-08-07T16:53:14.774Z,20.44
2022-08-07T16:56:19.041Z,20.49
2022-08-07T16:59:14.366Z,20.46
2022-08-07T17:02:50.889Z,20.52
2022-08-07T17:06:19.850Z,20.56
2022-08-07T17:09:10.336Z,20.47
2022-08-07T17:12:33.854Z,20.56
2022-08-07T17:15:21.109Z,20.55
2022-08-07T17:18:18.493Z,20.53
2022-08-07T17:21:19.168Z,20.42
2022-08-07T17:24:32.912Z,20.26
2022-08-07T17:27:51.085Z,20.15
2022-08-07T17:30:58.277Z,19.99
2022-08-07T17:34:33.402Z,20.01
2022-08-07T17:37:09.548Z,19.93
2022-08-07T17:40:30.611Z,19.87
2022-08-07T17:44:01.622Z,19.92
2022-08-07T17:46:52.639Z,19.95
2022-08-07T17:49:46.143Z,19.82
2022-08-07T17:52:39.722Z,19.85
2022-08-07T17:56:01.172Z,19.77
2022-08-07T17:58:51.621Z,19.73
2022-08-07T18:01:48.592Z,19.64
2022-08-07T18:04:43.387Z,19.68
2022-08-07T18:07:44.823Z,19.58
2022-08-07T18:12:08.420Z,19.49
2022-08-07T18:14:16.454Z,19.46
2022-08-07T18:17:14.091Z,19.27
2022-08-07T18:21:07.007Z,19.15
2022-08-07T18:23:43.418Z,19.03
2022-08-07T18:27:00.711Z,18.83
2022-08-07T18:30:07.092Z,18.73
2022-08-07T18:33:58.977Z,18.61
2022-08-07T18:36:56.839Z,18.48
2022-08-07T18:40:06.754Z,18.39
2022-08-07T18:43:05.796Z,18.30
2022-08-07T18:46:25.818Z,18.27
2022-08-07T18:50:05.934Z,18.16
2022-08-07T18:52:54.196Z,18.13
2022-08-07T18:55:55.735Z,18.03
2022-08-07T18:58:56.102Z,17.95
2022-08-07T19:02:31.967Z,17.85
2022-08-07T19:05:14.993Z,17.77
2022-08-07T19:08:07.584Z,17.69
2022-08-07T19:11:15.501Z,17.63
2022-08-07T19:14:16.999Z,17.50
2022-08-07T19:18:00.809Z,17.43
2022-08-07T19:20:32.783Z,17.36
2022-08-07T19:23:57.939Z,17.28
2022-08-07T19:27:09.102Z,17.13
2022-08-07T19:31:04.682Z,17.01
2022-08-07T19:33:08.394Z,16.93
2022-08-07T19:36:00.470Z,16.80
2022-08-07T19:38:53.882Z,16.55
2022-08-07T19:42:05.509Z,16.56
2022-08-07T19:44:50.910Z,16.49
2022-08-07T19:47:43.306Z,16.42
2022-08-07T19:50:43.120Z,16.22
2022-08-07T19:54:31.662Z,16.07
2022-08-07T19:57:59.840Z,15.98
2022-08-07T19:59:57.137Z,15.90
2022-08-07T20:02:52.089Z,15.87
2022-08-07T20:05:59.775Z,15.84
2022-08-07T20:08:52.447Z,15.78
2022-08-07T20:12:23.201Z,15.74
2022-08-07T20:14:54.104Z,15.57
2022-08-07T20:18:01.497Z,15.54
2022-08-07T20:20:57.808Z,15.41
2022-08-07T20:23:53.832Z,15.29
2022-08-07T20:26:49.895Z,15.25
2022-08-07T20:29:48.647Z,15.17
2022-08-07T20:32:48.298Z,15.11
2022-08-07T20:35:54.378Z,15.03
2022-08-07T20:39:00.447Z,14.96
2022-08-07T20:41:54.231Z,14.91
2022-08-07T20:44:49.607Z,14.96
2022-08-07T20:47:56.268Z,14.81
2022-08-07T20:50:44.912Z,14.83
2022-08-07T20:54:02.833Z,14.87
2022-08-07T20:56:49.960Z,14.81
2022-08-07T21:00:08.145Z,14.83
2022-08-07T21:03:04.129Z,14.60
2022-08-07T21:06:01.490Z,14.51
2022-08-07T21:09:13.775Z,14.36
2022-08-07T21:12:15.427Z,14.25
2022-08-07T21:15:18.646Z,14.18
2022-08-07T21:18:20.188Z,14.12
2022-08-07T21:21:16.629Z,14.04
2022-08-07T21:24:10.832Z,14.00
2022-08-07T21:27:14.920Z,13.89
2022-08-07T21:30:09.179Z,13.85
2022-08-07T21:33:20.991Z,13.89
2022-08-07T21:36:31.482Z,13.87
2022-08-07T21:39:45.109Z,13.68
2022-08-07T21:42:49.393Z,13.57
2022-08-07T21:46:11.027Z,13.47
2022-08-07T21:48:57.807Z,13.43
2022-08-07T21:52:04.964Z,13.35
2022-08-07T21:55:07.550Z,13.29
2022-08-07T21:58:08.146Z,13.25
2022-08-07T22:01:04.210Z,13.20
2022-08-07T22:04:17.567Z,13.09
2022-08-07T22:07:12.655Z,12.99
2022-08-07T22:10:07.204Z,13.07
2022-08-07T22:12:58.100Z,12.92
2022-08-07T22:16:38.345Z,12.78
2022-08-07T22:19:29.307Z,12.89
2022-08-07T22:22:28.674Z,12.83
2022-08-07T22:25:26.560Z,12.76
2022-08-07T22:28:31.832Z,12.93
2022-08-07T22:31:45.444Z,12.78
2022-08-07T22:34:49.798Z,12.75
2022-08-07T22:38:01.840Z,12.62
2022-08-07T22:40:56.171Z,12.52
2022-08-07T22:43:48.820Z,12.59
2022-08-07T22:47:06.320Z,12.63
2022-08-07T22:50:21.030Z,12.48
2022-08-07T22:54:06.493Z,12.44
2022-08-07T22:56:59.344Z,12.44
2022-08-07T22:59:53.776Z,12.39
2022-08-07T23:03:01.243Z,12.39
2022-08-07T23:06:19.019Z,12.41
2022-08-07T23:10:03.488Z,12.29
2022-08-07T23:12:55.578Z,12.19
2022-08-07T23:16:06.832Z,12.13
2022-08-07T23:19:38.731Z,12.08
2022-08-07T23:22:46.541Z,12.02
2022-08-07T23:25:49.850Z,11.98
2022-08-07T23:29:01.971Z,11.94
2022-08-07T23:34:18.889Z,11.86
2022-08-07T23:35:20.403Z,11.89
2022-08-07T23:38:36.907Z,11.94
2022-08-07T23:42:05.037Z,11.77
2022-08-07T23:45:33.300Z,11.76
2022-08-07T23:49:15.185Z,11.66
2022-08-07T23:52:59.938Z,11.59
2022-08-07T23:55:47.054Z,11.53
2022-08-07T23:58:45.241Z,11.48
